sensor_id;sensor_type;location;lat;lon;timestamp;pressure;altitude;pressure_sealevel;temperature;humidity
967;BME280;56108;48.730;9.304;2022-12-18T00:01:36;98656.28;;;-9.54;100.00
967;BME280;56108;48.730;9.304;2022-12-18T00:03:45;98650.97;;;-9.60;100.00
967;BME280;56108;48.730;9.304;2022-12-18T00:05:53;98659.09;;;-9.76;100.00
967;BME280;56108;48.730;9.304;2022-12-18T00:08:01;98662.78;;;-9.66;100.00
967;BME280;56108;48.730;9.304;2022-12-18T00:10:13;98662.63;;;-9.73;100.00
967;BME280;56108;48.730;9.304;2022-12-18T00:12:26;98672.06;;;-9.73;100.00
967;BME280;56108;48.730;9.304;2022-12-18T00:14:34;98671.22;;;-9.72;100.00
967;BME280;56108;48.730;9.304;2022-12-18T00:16:46;98661.31;;;-9.58;100.00
967;BME280;56108;48.730;9.304;2022-12-18T00:18:56;98655.28;;;-9.59;100.00
967;BME280;56108;48.730;9.304;2022-12-18T00:21:08;98658.13;;;-9.50;100.00
967;BME280;56108;48.730;9.304;2022-12-18T00:23:17;98662.91;;;-9.62;100.00
967;BME280;56108;48.730;9.304;2022-12-18T00:25:26;98664.47;;;-9.68;100.00
967;BME280;56108;48.730;9.304;2022-12-18T00:27:37;98676.16;;;-9.81;100.00
967;BME280;56108;48.730;9.304;2022-12-18T00:29:45;98673.59;;;-9.80;100.00
967;BME280;56108;48.730;9.304;2022-12-18T00:31:53;98671.06;;;-9.78;100.00
967;BME280;56108;48.730;9.304;2022-12-18T00:34:01;98671.72;;;-9.85;100.00
967;BME280;56108;48.730;9.304;2022-12-18T00:36:11;98664.56;;;-9.95;100.00
967;BME280;56108;48.730;9.304;2022-12-18T00:38:20;98660.44;;;-9.90;100.00
967;BME280;56108;48.730;9.304;2022-12-18T00:40:32;98668.78;;;-9.67;100.00
967;BME280;56108;48.730;9.304;2022-12-18T00:42:42;98668.34;;;-9.83;100.00
967;BME280;56108;48.730;9.304;2022-12-18T00:45:03;98675.44;;;-9.76;100.00
967;BME280;56108;48.730;9.304;2022-12-18T00:47:16;98670.47;;;-9.68;100.00
967;BME280;56108;48.730;9.304;2022-12-18T00:49:25;98681.75;;;-9.64;100.00
967;BME280;56108;48.730;9.304;2022-12-18T00:51:33;98688.50;;;-9.36;100.00
967;BME280;56108;48.730;9.304;2022-12-18T00:53:41;98686.25;;;-9.56;100.00
967;BME280;56108;48.730;9.304;2022-12-18T00:55:49;98681.34;;;-9.48;100.00
967;BME280;56108;48.730;9.304;2022-12-18T00:58:00;98681.47;;;-9.75;100.00
967;BME280;56108;48.730;9.304;2022-12-18T01:00:10;98678.91;;;-9.74;100.00
967;BME280;56108;48.730;9.304;2022-12-18T01:02:18;98681.09;;;-9.87;100.00
967;BME280;56108;48.730;9.304;2022-12-18T01:04:27;98684.59;;;-9.85;100.00
967;BME280;56108;48.730;9.304;2022-12-18T01:06:35;98681.53;;;-9.72;100.00
967;BME280;56108;48.730;9.304;2022-12-18T01:08:44;98688.09;;;-9.52;100.00
967;BME280;56108;48.730;9.304;2022-12-18T01:10:52;98681.50;;;-9.42;100.00
967;BME280;56108;48.730;9.304;2022-12-18T01:13:03;98679.25;;;-9.61;100.00
967;BME280;56108;48.730;9.304;2022-12-18T01:15:12;98677.66;;;-9.56;100.00
967;BME280;56108;48.730;9.304;2022-12-18T01:17:21;98679.94;;;-9.67;100.00
967;BME280;56108;48.730;9.304;2022-12-18T01:19:30;98679.25;;;-9.61;100.00
967;BME280;56108;48.730;9.304;2022-12-18T01:21:38;98671.44;;;-9.64;100.00
967;BME280;56108;48.730;9.304;2022-12-18T01:23:47;98675.31;;;-9.80;100.00
967;BME280;56108;48.730;9.304;2022-12-18T01:26:04;98686.03;;;-9.65;100.00
967;BME280;56108;48.730;9.304;2022-12-18T01:28:15;98692.47;;;-9.81;100.00
967;BME280;56108;48.730;9.304;2022-12-18T01:30:23;98688.81;;;-9.87;100.00
967;BME280;56108;48.730;9.304;2022-12-18T01:32:31;98696.75;;;-9.81;100.00
967;BME280;56108;48.730;9.304;2022-12-18T01:34:39;98699.41;;;-9.77;100.00
967;BME280;56108;48.730;9.304;2022-12-18T01:36:47;98700.34;;;-9.75;100.00
967;BME280;56108;48.730;9.304;2022-12-18T01:38:58;98705.72;;;-9.67;100.00
967;BME280;56108;48.730;9.304;2022-12-18T01:41:08;98699.66;;;-9.69;100.00
967;BME280;56108;48.730;9.304;2022-12-18T01:43:18;98693.66;;;-9.68;100.00
967;BME280;56108;48.730;9.304;2022-12-18T01:45:27;98700.69;;;-9.62;100.00
967;BME280;56108;48.730;9.304;2022-12-18T01:47:38;98699.16;;;-9.56;100.00
967;BME280;56108;48.730;9.304;2022-12-18T01:49:50;98698.41;;;-9.52;100.00
967;BME280;56108;48.730;9.304;2022-12-18T01:51:58;98704.53;;;-9.48;100.00
967;BME280;56108;48.730;9.304;2022-12-18T01:54:06;98715.41;;;-9.58;100.00
967;BME280;56108;48.730;9.304;2022-12-18T01:56:15;98711.72;;;-9.36;100.00
967;BME280;56108;48.730;9.304;2022-12-18T01:58:30;98714.91;;;-9.45;100.00
967;BME280;56108;48.730;9.304;2022-12-18T02:00:40;98708.16;;;-9.40;100.00
967;BME280;56108;48.730;9.304;2022-12-18T02:02:49;98706.53;;;-9.38;100.00
967;BME280;56108;48.730;9.304;2022-12-18T02:05:00;98698.41;;;-9.52;100.00
967;BME280;56108;48.730;9.304;2022-12-18T02:07:14;98698.34;;;-9.55;100.00
967;BME280;56108;48.730;9.304;2022-12-18T02:09:38;98697.16;;;-9.66;100.00
967;BME280;56108;48.730;9.304;2022-12-18T02:12:00;98695.06;;;-9.79;100.00
967;BME280;56108;48.730;9.304;2022-12-18T02:14:28;98699.09;;;-9.89;100.00
967;BME280;56108;48.730;9.304;2022-12-18T02:16:54;98702.19;;;-10.01;100.00
967;BME280;56108;48.730;9.304;2022-12-18T02:19:20;98698.75;;;-10.01;100.00
967;BME280;56108;48.730;9.304;2022-12-18T02:21:43;98705.81;;;-9.94;100.00
967;BME280;56108;48.730;9.304;2022-12-18T02:24:04;98700.91;;;-10.15;100.00
967;BME280;56108;48.730;9.304;2022-12-18T02:26:27;98706.66;;;-10.23;100.00
967;BME280;56108;48.730;9.304;2022-12-18T02:28:41;98704.31;;;-10.16;100.00
967;BME280;56108;48.730;9.304;2022-12-18T02:30:51;98710.00;;;-10.28;100.00
967;BME280;56108;48.730;9.304;2022-12-18T02:33:04;98707.28;;;-10.32;100.00
967;BME280;56108;48.730;9.304;2022-12-18T02:35:20;98714.81;;;-10.38;100.00
967;BME280;56108;48.730;9.304;2022-12-18T02:37:32;98719.63;;;-10.49;100.00
967;BME280;56108;48.730;9.304;2022-12-18T02:39:44;98726.34;;;-10.54;100.00
967;BME280;56108;48.730;9.304;2022-12-18T02:41:57;98724.84;;;-10.46;100.00
967;BME280;56108;48.730;9.304;2022-12-18T02:44:10;98728.22;;;-10.48;100.00
967;BME280;56108;48.730;9.304;2022-12-18T02:46:27;98732.00;;;-10.37;100.00
967;BME280;56108;48.730;9.304;2022-12-18T02:48:39;98731.94;;;-10.39;100.00
967;BME280;56108;48.730;9.304;2022-12-18T02:50:57;98735.69;;;-10.56;100.00
967;BME280;56108;48.730;9.304;2022-12-18T02:53:14;98742.34;;;-10.63;100.00
967;BME280;56108;48.730;9.304;2022-12-18T02:55:35;98738.09;;;-10.61;100.00
967;BME280;56108;48.730;9.304;2022-12-18T02:57:58;98745.75;;;-10.64;100.00
967;BME280;56108;48.730;9.304;2022-12-18T03:00:17;98751.50;;;-10.71;100.00
967;BME280;56108;48.730;9.304;2022-12-18T03:02:33;98750.31;;;-10.81;100.00
967;BME280;56108;48.730;9.304;2022-12-18T03:04:48;98740.84;;;-10.82;100.00
967;BME280;56108;48.730;9.304;2022-12-18T03:07:02;98740.09;;;-10.79;100.00
967;BME280;56108;48.730;9.304;2022-12-18T03:09:16;98740.19;;;-10.76;100.00
967;BME280;56108;48.730;9.304;2022-12-18T03:11:27;98737.69;;;-10.74;100.00
967;BME280;56108;48.730;9.304;2022-12-18T03:13:54;98725.53;;;-10.79;100.00
967;BME280;56108;48.730;9.304;2022-12-18T03:16:06;98731.84;;;-10.96;100.00
967;BME280;56108;48.730;9.304;2022-12-18T03:18:18;98737.84;;;-10.95;100.00
967;BME280;56108;48.730;9.304;2022-12-18T03:20:31;98745.09;;;-10.84;100.00
967;BME280;56108;48.730;9.304;2022-12-18T03:22:41;98739.91;;;-10.85;100.00
967;BME280;56108;48.730;9.304;2022-12-18T03:24:54;98738.41;;;-10.79;100.00
967;BME280;56108;48.730;9.304;2022-12-18T03:27:06;98747.75;;;-10.81;100.00
967;BME280;56108;48.730;9.304;2022-12-18T03:29:26;98749.59;;;-10.76;100.00
967;BME280;56108;48.730;9.304;2022-12-18T03:31:37;98753.66;;;-10.83;100.00
967;BME280;56108;48.730;9.304;2022-12-18T03:33:53;98756.59;;;-10.98;100.00
967;BME280;56108;48.730;9.304;2022-12-18T03:36:10;98751.38;;;-11.01;100.00
967;BME280;56108;48.730;9.304;2022-12-18T03:38:19;98755.72;;;-10.98;100.00
967;BME280;56108;48.730;9.304;2022-12-18T03:40:35;98759.13;;;-10.99;100.00
967;BME280;56108;48.730;9.304;2022-12-18T03:42:51;98751.38;;;-11.01;100.00
967;BME280;56108;48.730;9.304;2022-12-18T03:45:09;98747.00;;;-11.03;100.00
967;BME280;56108;48.730;9.304;2022-12-18T03:47:26;98743.38;;;-11.09;100.00
967;BME280;56108;48.730;9.304;2022-12-18T03:49:44;98740.16;;;-11.03;100.00
967;BME280;56108;48.730;9.304;2022-12-18T03:52:02;98738.88;;;-11.16;100.00
967;BME280;56108;48.730;9.304;2022-12-18T03:54:11;98735.88;;;-11.02;100.00
967;BME280;56108;48.730;9.304;2022-12-18T03:56:31;98743.38;;;-11.09;100.00
967;BME280;56108;48.730;9.304;2022-12-18T03:58:45;98746.13;;;-11.04;100.00
967;BME280;56108;48.730;9.304;2022-12-18T04:01:08;98746.06;;;-11.06;100.00
967;BME280;56108;48.730;9.304;2022-12-18T04:03:21;98746.06;;;-11.06;100.00
967;BME280;56108;48.730;9.304;2022-12-18T04:05:33;98754.31;;;-10.90;100.00
967;BME280;56108;48.730;9.304;2022-12-18T04:07:45;98749.75;;;-10.97;100.00
967;BME280;56108;48.730;9.304;2022-12-18T04:09:58;98746.22;;;-11.01;100.00
967;BME280;56108;48.730;9.304;2022-12-18T04:12:08;98747.09;;;-11.00;100.00
967;BME280;56108;48.730;9.304;2022-12-18T04:14:17;98742.00;;;-10.99;100.00
967;BME280;56108;48.730;9.304;2022-12-18T04:16:33;98740.50;;;-10.92;100.00
967;BME280;56108;48.730;9.304;2022-12-18T04:18:43;98746.28;;;-10.99;100.00
967;BME280;56108;48.730;9.304;2022-12-18T04:20:52;98729.63;;;-11.11;100.00
967;BME280;56108;48.730;9.304;2022-12-18T04:23:00;98738.09;;;-11.13;100.00
967;BME280;56108;48.730;9.304;2022-12-18T04:25:08;98748.13;;;-11.21;100.00
967;BME280;56108;48.730;9.304;2022-12-18T04:27:32;98730.13;;;-11.21;100.00
967;BME280;56108;48.730;9.304;2022-12-18T04:29:41;98739.41;;;-11.24;100.00
967;BME280;56108;48.730;9.304;2022-12-18T04:31:52;98735.94;;;-11.26;100.00
967;BME280;56108;48.730;9.304;2022-12-18T04:34:02;98743.53;;;-11.29;100.00
967;BME280;56108;48.730;9.304;2022-12-18T04:36:22;98753.31;;;-11.43;100.00
967;BME280;56108;48.730;9.304;2022-12-18T04:38:33;98755.00;;;-11.44;100.00
967;BME280;56108;48.730;9.304;2022-12-18T04:40:48;98769.16;;;-11.55;100.00
967;BME280;56108;48.730;9.304;2022-12-18T04:43:03;98773.22;;;-11.62;100.00
967;BME280;56108;48.730;9.304;2022-12-18T04:45:11;98777.53;;;-11.85;100.00
967;BME280;56108;48.730;9.304;2022-12-18T04:47:21;98779.47;;;-11.77;100.00
967;BME280;56108;48.730;9.304;2022-12-18T04:49:29;98772.38;;;-11.61;100.00
967;BME280;56108;48.730;9.304;2022-12-18T04:51:37;98779.88;;;-11.67;100.00
967;BME280;56108;48.730;9.304;2022-12-18T04:53:45;98770.03;;;-11.78;100.00
967;BME280;56108;48.730;9.304;2022-12-18T04:56:02;98760.72;;;-11.75;100.00
967;BME280;56108;48.730;9.304;2022-12-18T04:58:10;98766.00;;;-11.72;100.00
967;BME280;56108;48.730;9.304;2022-12-18T05:00:18;98756.38;;;-11.77;100.00
967;BME280;56108;48.730;9.304;2022-12-18T05:02:29;98752.38;;;-11.69;100.00
967;BME280;56108;48.730;9.304;2022-12-18T05:04:37;98746.28;;;-11.73;100.00
967;BME280;56108;48.730;9.304;2022-12-18T05:06:45;98741.72;;;-11.80;100.00
967;BME280;56108;48.730;9.304;2022-12-18T05:08:53;98742.06;;;-11.71;100.00
967;BME280;56108;48.730;9.304;2022-12-18T05:11:04;98741.59;;;-11.85;100.00
967;BME280;56108;48.730;9.304;2022-12-18T05:13:12;98743.91;;;-11.91;100.00
967;BME280;56108;48.730;9.304;2022-12-18T05:15:20;98747.50;;;-11.87;100.00
967;BME280;56108;48.730;9.304;2022-12-18T05:17:30;98744.25;;;-12.05;100.00
967;BME280;56108;48.730;9.304;2022-12-18T05:19:38;98750.13;;;-12.08;100.00
967;BME280;56108;48.730;9.304;2022-12-18T05:21:49;98756.72;;;-12.15;100.00
967;BME280;56108;48.730;9.304;2022-12-18T05:23:57;98762.72;;;-12.14;100.00
967;BME280;56108;48.730;9.304;2022-12-18T05:26:06;98764.41;;;-12.15;100.00
967;BME280;56108;48.730;9.304;2022-12-18T05:28:14;98764.00;;;-12.03;100.00
967;BME280;56108;48.730;9.304;2022-12-18T05:30:22;98764.66;;;-12.08;100.00
967;BME280;56108;48.730;9.304;2022-12-18T05:32:33;98764.78;;;-12.05;100.00
967;BME280;56108;48.730;9.304;2022-12-18T05:34:41;98768.59;;;-12.17;100.00
967;BME280;56108;48.730;9.304;2022-12-18T05:36:49;98774.56;;;-12.18;100.00
967;BME280;56108;48.730;9.304;2022-12-18T05:38:57;98771.63;;;-12.27;100.00
967;BME280;56108;48.730;9.304;2022-12-18T05:41:06;98767.41;;;-12.26;100.00
967;BME280;56108;48.730;9.304;2022-12-18T05:43:28;98771.88;;;-12.21;100.00
967;BME280;56108;48.730;9.304;2022-12-18T05:45:49;98772.31;;;-12.10;100.00
967;BME280;56108;48.730;9.304;2022-12-18T05:48:01;98769.47;;;-12.16;100.00
967;BME280;56108;48.730;9.304;2022-12-18T05:50:09;98774.78;;;-12.12;100.00
967;BME280;56108;48.730;9.304;2022-12-18T05:52:18;98771.22;;;-11.93;100.00
967;BME280;56108;48.730;9.304;2022-12-18T05:54:27;98771.06;;;-11.73;100.00
967;BME280;56108;48.730;9.304;2022-12-18T05:56:35;98768.19;;;-11.82;100.00
967;BME280;56108;48.730;9.304;2022-12-18T05:58:51;98765.13;;;-11.72;100.00
967;BME280;56108;48.730;9.304;2022-12-18T06:01:07;98772.53;;;-11.80;100.00
967;BME280;56108;48.730;9.304;2022-12-18T06:03:18;98768.50;;;-11.97;100.00
967;BME280;56108;48.730;9.304;2022-12-18T06:05:27;98777.25;;;-12.15;100.00
967;BME280;56108;48.730;9.304;2022-12-18T06:07:35;98771.28;;;-12.36;100.00
967;BME280;56108;48.730;9.304;2022-12-18T06:09:43;98770.16;;;-12.43;100.00
967;BME280;56108;48.730;9.304;2022-12-18T06:11:52;98768.16;;;-12.50;100.00
967;BME280;56108;48.730;9.304;2022-12-18T06:14:00;98765.09;;;-12.41;100.00
967;BME280;56108;48.730;9.304;2022-12-18T06:16:10;98771.66;;;-12.48;100.00
967;BME280;56108;48.730;9.304;2022-12-18T06:18:21;98779.47;;;-12.45;100.00
967;BME280;56108;48.730;9.304;2022-12-18T06:20:29;98777.06;;;-12.42;100.00
967;BME280;56108;48.730;9.304;2022-12-18T06:22:40;98784.31;;;-12.52;100.00
967;BME280;56108;48.730;9.304;2022-12-18T06:24:48;98786.06;;;-12.51;100.00
967;BME280;56108;48.730;9.304;2022-12-18T06:26:56;98774.53;;;-12.40;100.00
967;BME280;56108;48.730;9.304;2022-12-18T06:29:04;98771.56;;;-12.51;100.00
967;BME280;56108;48.730;9.304;2022-12-18T06:31:13;98766.47;;;-12.49;100.00
967;BME280;56108;48.730;9.304;2022-12-18T06:33:26;98767.53;;;-12.44;100.00
967;BME280;56108;48.730;9.304;2022-12-18T06:35:34;98787.19;;;-12.45;100.00
967;BME280;56108;48.730;9.304;2022-12-18T06:37:42;98791.03;;;-12.33;100.00
967;BME280;56108;48.730;9.304;2022-12-18T06:39:50;98791.63;;;-12.18;100.00
967;BME280;56108;48.730;9.304;2022-12-18T06:41:58;98790.53;;;-12.02;100.00
967;BME280;56108;48.730;9.304;2022-12-18T06:44:06;98798.06;;;-12.07;100.00
967;BME280;56108;48.730;9.304;2022-12-18T06:46:15;98793.28;;;-11.98;100.00
967;BME280;56108;48.730;9.304;2022-12-18T06:48:25;98793.28;;;-11.98;100.00
967;BME280;56108;48.730;9.304;2022-12-18T06:50:33;98797.19;;;-12.07;100.00
967;BME280;56108;48.730;9.304;2022-12-18T06:52:45;98795.75;;;-12.22;100.00
967;BME280;56108;48.730;9.304;2022-12-18T06:54:55;98798.53;;;-12.38;100.00
967;BME280;56108;48.730;9.304;2022-12-18T06:57:03;98802.38;;;-12.49;100.00
967;BME280;56108;48.730;9.304;2022-12-18T06:59:12;98795.25;;;-12.56;100.00
967;BME280;56108;48.730;9.304;2022-12-18T07:01:20;98796.00;;;-12.59;100.00
967;BME280;56108;48.730;9.304;2022-12-18T07:03:31;98801.44;;;-12.51;100.00
967;BME280;56108;48.730;9.304;2022-12-18T07:05:40;98807.25;;;-12.34;100.00
967;BME280;56108;48.730;9.304;2022-12-18T07:07:48;98805.88;;;-12.26;100.00
967;BME280;56108;48.730;9.304;2022-12-18T07:09:56;98808.41;;;-12.05;100.00
967;BME280;56108;48.730;9.304;2022-12-18T07:12:05;98813.16;;;-11.92;100.00
967;BME280;56108;48.730;9.304;2022-12-18T07:14:13;98814.03;;;-12.14;100.00
967;BME280;56108;48.730;9.304;2022-12-18T07:16:22;98831.56;;;-12.25;100.00
967;BME280;56108;48.730;9.304;2022-12-18T07:18:32;98825.00;;;-12.39;100.00
967;BME280;56108;48.730;9.304;2022-12-18T07:20:42;98828.59;;;-12.35;100.00
967;BME280;56108;48.730;9.304;2022-12-18T07:22:51;98834.88;;;-12.48;100.00
967;BME280;56108;48.730;9.304;2022-12-18T07:25:00;98835.69;;;-12.28;100.00
967;BME280;56108;48.730;9.304;2022-12-18T07:27:08;98828.16;;;-12.03;100.00
967;BME280;56108;48.730;9.304;2022-12-18T07:29:16;98838.78;;;-11.94;100.00
967;BME280;56108;48.730;9.304;2022-12-18T07:31:25;98829.25;;;-11.96;100.00
967;BME280;56108;48.730;9.304;2022-12-18T07:33:36;98845.03;;;-12.30;100.00
967;BME280;56108;48.730;9.304;2022-12-18T07:35:44;98843.88;;;-12.16;100.00
967;BME280;56108;48.730;9.304;2022-12-18T07:37:52;98833.25;;;-12.04;100.00
967;BME280;56108;48.730;9.304;2022-12-18T07:40:09;98844.19;;;-12.08;100.00
967;BME280;56108;48.730;9.304;2022-12-18T07:42:18;98844.31;;;-11.83;100.00
967;BME280;56108;48.730;9.304;2022-12-18T07:44:38;98843.28;;;-11.64;100.00
967;BME280;56108;48.730;9.304;2022-12-18T07:46:46;98842.22;;;-11.69;100.00
967;BME280;56108;48.730;9.304;2022-12-18T07:48:56;98844.47;;;-11.78;100.00
967;BME280;56108;48.730;9.304;2022-12-18T07:51:06;98843.53;;;-11.58;100.00
967;BME280;56108;48.730;9.304;2022-12-18T07:53:16;98849.88;;;-11.48;100.00
967;BME280;56108;48.730;9.304;2022-12-18T07:55:24;98854.81;;;-11.31;100.00
967;BME280;56108;48.730;9.304;2022-12-18T07:57:33;98841.31;;;-11.25;100.00
967;BME280;56108;48.730;9.304;2022-12-18T08:00:01;98848.09;;;-11.27;100.00
967;BME280;56108;48.730;9.304;2022-12-18T08:02:15;98853.16;;;-11.06;100.00
967;BME280;56108;48.730;9.304;2022-12-18T08:04:28;98859.19;;;-11.04;100.00
967;BME280;56108;48.730;9.304;2022-12-18T08:06:42;98856.88;;;-10.96;100.00
967;BME280;56108;48.730;9.304;2022-12-18T08:08:52;98856.94;;;-11.19;100.00
967;BME280;56108;48.730;9.304;2022-12-18T08:11:01;98855.69;;;-11.30;100.00
967;BME280;56108;48.730;9.304;2022-12-18T08:13:09;98855.94;;;-11.46;100.00
967;BME280;56108;48.730;9.304;2022-12-18T08:15:22;98855.03;;;-11.71;100.00
967;BME280;56108;48.730;9.304;2022-12-18T08:17:31;98859.69;;;-11.61;100.00
967;BME280;56108;48.730;9.304;2022-12-18T08:19:42;98853.34;;;-11.48;100.00
967;BME280;56108;48.730;9.304;2022-12-18T08:21:50;98852.38;;;-11.50;100.00
967;BME280;56108;48.730;9.304;2022-12-18T08:24:00;98849.13;;;-11.46;100.00
967;BME280;56108;48.730;9.304;2022-12-18T08:26:09;98857.47;;;-11.51;100.00
967;BME280;56108;48.730;9.304;2022-12-18T08:28:17;98844.84;;;-11.45;100.00
967;BME280;56108;48.730;9.304;2022-12-18T08:30:25;98848.50;;;-11.39;100.00
967;BME280;56108;48.730;9.304;2022-12-18T08:32:34;98847.22;;;-11.27;100.00
967;BME280;56108;48.730;9.304;2022-12-18T08:34:45;98850.41;;;-11.11;100.00
967;BME280;56108;48.730;9.304;2022-12-18T08:36:53;98847.06;;;-11.08;100.00
967;BME280;56108;48.730;9.304;2022-12-18T08:39:02;98844.66;;;-10.80;100.00
967;BME280;56108;48.730;9.304;2022-12-18T08:41:12;98843.88;;;-10.77;100.00
967;BME280;56108;48.730;9.304;2022-12-18T08:43:20;98847.06;;;-10.59;100.00
967;BME280;56108;48.730;9.304;2022-12-18T08:45:41;98844.75;;;-10.51;100.00
967;BME280;56108;48.730;9.304;2022-12-18T08:47:50;98853.81;;;-10.62;100.00
967;BME280;56108;48.730;9.304;2022-12-18T08:50:01;98844.84;;;-10.73;100.00
967;BME280;56108;48.730;9.304;2022-12-18T08:52:10;98855.00;;;-10.53;100.00
967;BME280;56108;48.730;9.304;2022-12-18T08:54:21;98851.38;;;-10.58;100.00
967;BME280;56108;48.730;9.304;2022-12-18T08:56:31;98858.22;;;-10.33;100.00
967;BME280;56108;48.730;9.304;2022-12-18T08:58:40;98860.28;;;-10.21;100.00
967;BME280;56108;48.730;9.304;2022-12-18T09:00:48;98855.22;;;-10.18;100.00
967;BME280;56108;48.730;9.304;2022-12-18T09:02:56;98853.34;;;-9.96;100.00
967;BME280;56108;48.730;9.304;2022-12-18T09:05:07;98843.13;;;-9.93;100.00
967;BME280;56108;48.730;9.304;2022-12-18T09:07:15;98841.53;;;-9.90;100.00
967;BME280;56108;48.730;9.304;2022-12-18T09:09:23;98842.91;;;-10.01;100.00
967;BME280;56108;48.730;9.304;2022-12-18T09:11:33;98840.25;;;-10.03;100.00
967;BME280;56108;48.730;9.304;2022-12-18T09:13:41;98833.97;;;-9.85;100.00
967;BME280;56108;48.730;9.304;2022-12-18T09:15:51;98831.94;;;-9.67;100.00
967;BME280;56108;48.730;9.304;2022-12-18T09:17:59;98826.88;;;-9.64;100.00
967;BME280;56108;48.730;9.304;2022-12-18T09:20:10;98830.09;;;-9.42;100.00
967;BME280;56108;48.730;9.304;2022-12-18T09:22:18;98827.84;;;-9.30;100.00
967;BME280;56108;48.730;9.304;2022-12-18T09:27:06;98826.72;;;-8.09;100.00
967;BME280;56108;48.730;9.304;2022-12-18T09:29:15;98830.66;;;-7.07;100.00
967;BME280;56108;48.730;9.304;2022-12-18T09:31:25;98837.22;;;-6.79;100.00
967;BME280;56108;48.730;9.304;2022-12-18T09:33:33;98835.28;;;-6.91;100.00
967;BME280;56108;48.730;9.304;2022-12-18T09:35:45;98830.72;;;-6.09;100.00
967;BME280;56108;48.730;9.304;2022-12-18T09:37:53;98826.13;;;-5.04;96.81
967;BME280;56108;48.730;9.304;2022-12-18T09:40:03;98831.38;;;-4.99;91.47
967;BME280;56108;48.730;9.304;2022-12-18T09:42:17;98834.44;;;-4.56;87.27
967;BME280;56108;48.730;9.304;2022-12-18T09:44:29;98824.34;;;-4.26;86.83
967;BME280;56108;48.730;9.304;2022-12-18T09:46:48;98821.19;;;-3.91;83.20
967;BME280;56108;48.730;9.304;2022-12-18T09:49:01;98826.09;;;-2.88;81.00
967;BME280;56108;48.730;9.304;2022-12-18T09:51:15;98826.50;;;-3.74;78.64
967;BME280;56108;48.730;9.304;2022-12-18T09:53:26;98827.69;;;-3.20;78.02
967;BME280;56108;48.730;9.304;2022-12-18T09:55:38;98826.91;;;-2.99;75.40
967;BME280;56108;48.730;9.304;2022-12-18T09:57:51;98821.53;;;-3.39;76.32
967;BME280;56108;48.730;9.304;2022-12-18T10:00:06;98816.25;;;-4.58;81.19
967;BME280;56108;48.730;9.304;2022-12-18T10:02:21;98810.94;;;-6.03;85.37
967;BME280;56108;48.730;9.304;2022-12-18T10:04:30;98802.13;;;-6.65;90.58
967;BME280;56108;48.730;9.304;2022-12-18T10:06:48;98805.81;;;-6.99;95.03
967;BME280;56108;48.730;9.304;2022-12-18T10:09:01;98804.91;;;-7.01;99.02
967;BME280;56108;48.730;9.304;2022-12-18T10:11:38;98804.56;;;-7.19;100.00
967;BME280;56108;48.730;9.304;2022-12-18T10:13:52;98799.66;;;-7.48;100.00
967;BME280;56108;48.730;9.304;2022-12-18T10:16:09;98794.34;;;-7.54;100.00
967;BME280;56108;48.730;9.304;2022-12-18T10:18:29;98802.56;;;-7.31;100.00
967;BME280;56108;48.730;9.304;2022-12-18T10:20:46;98801.84;;;-7.25;100.00
967;BME280;56108;48.730;9.304;2022-12-18T10:23:04;98803.63;;;-7.21;100.00
967;BME280;56108;48.730;9.304;2022-12-18T10:25:22;98806.53;;;-7.48;100.00
967;BME280;56108;48.730;9.304;2022-12-18T10:27:31;98808.50;;;-7.37;100.00
967;BME280;56108;48.730;9.304;2022-12-18T10:29:39;98807.59;;;-7.39;100.00
967;BME280;56108;48.730;9.304;2022-12-18T10:31:48;98810.81;;;-7.08;100.00
967;BME280;56108;48.730;9.304;2022-12-18T10:33:56;98819.00;;;-6.87;100.00
967;BME280;56108;48.730;9.304;2022-12-18T10:36:05;98812.25;;;-6.78;100.00
967;BME280;56108;48.730;9.304;2022-12-18T10:38:26;98802.78;;;-6.78;100.00
967;BME280;56108;48.730;9.304;2022-12-18T10:40:49;98793.41;;;-6.71;100.00
967;BME280;56108;48.730;9.304;2022-12-18T10:43:05;98800.59;;;-6.55;100.00
967;BME280;56108;48.730;9.304;2022-12-18T10:45:18;98803.78;;;-6.68;100.00
967;BME280;56108;48.730;9.304;2022-12-18T10:47:26;98813.41;;;-6.63;100.00
967;BME280;56108;48.730;9.304;2022-12-18T10:49:34;98816.44;;;-6.37;100.00
967;BME280;56108;48.730;9.304;2022-12-18T10:51:43;98816.66;;;-6.24;100.00
967;BME280;56108;48.730;9.304;2022-12-18T10:53:56;98814.13;;;-6.20;100.00
967;BME280;56108;48.730;9.304;2022-12-18T10:56:08;98816.03;;;-6.10;100.00
967;BME280;56108;48.730;9.304;2022-12-18T10:58:23;98805.94;;;-5.91;100.00
967;BME280;56108;48.730;9.304;2022-12-18T11:00:34;98817.00;;;-6.03;100.00
967;BME280;56108;48.730;9.304;2022-12-18T11:02:42;98812.25;;;-5.69;100.00
967;BME280;56108;48.730;9.304;2022-12-18T11:04:51;98816.72;;;-5.62;100.00
967;BME280;56108;48.730;9.304;2022-12-18T11:07:01;98815.69;;;-5.73;100.00
967;BME280;56108;48.730;9.304;2022-12-18T11:09:20;98814.28;;;-5.50;100.00
967;BME280;56108;48.730;9.304;2022-12-18T11:11:29;98808.88;;;-5.65;100.00
967;BME280;56108;48.730;9.304;2022-12-18T11:13:38;98812.59;;;-5.48;100.00
967;BME280;56108;48.730;9.304;2022-12-18T11:15:46;98803.97;;;-5.44;100.00
967;BME280;56108;48.730;9.304;2022-12-18T11:17:54;98800.50;;;-5.46;100.00
967;BME280;56108;48.730;9.304;2022-12-18T11:20:07;98796.47;;;-5.24;100.00
967;BME280;56108;48.730;9.304;2022-12-18T11:22:28;98791.34;;;-5.18;100.00
967;BME280;56108;48.730;9.304;2022-12-18T11:24:39;98791.53;;;-5.03;100.00
967;BME280;56108;48.730;9.304;2022-12-18T11:27:02;98776.81;;;-5.04;100.00
967;BME280;56108;48.730;9.304;2022-12-18T11:29:17;98779.44;;;-5.01;100.00
967;BME280;56108;48.730;9.304;2022-12-18T11:31:28;98775.06;;;-5.06;100.00
967;BME280;56108;48.730;9.304;2022-12-18T11:33:37;98764.06;;;-4.81;100.00
967;BME280;56108;48.730;9.304;2022-12-18T11:36:08;98764.88;;;-4.88;100.00
967;BME280;56108;48.730;9.304;2022-12-18T11:38:24;98762.19;;;-4.95;100.00
967;BME280;56108;48.730;9.304;2022-12-18T11:40:38;98768.16;;;-5.03;100.00
967;BME280;56108;48.730;9.304;2022-12-18T11:42:57;98769.06;;;-4.99;100.00
967;BME280;56108;48.730;9.304;2022-12-18T11:45:25;98755.34;;;-4.87;100.00